Time;durP1;ratioP1;P1;durP2;ratioP2;P2;SDS_P1;SDS_P2;PMS_P1;PMS_P2;Temp;Humidity;BMP_temperature;BMP_pressure;BME280_temperature;BME280_humidity;BME280_pressure;Samples;Min_cycle;Max_cycle;Signal;HPM_P1;HPM_P2
2023/02/14 00:00:22;;;;;;;;;;;;;;;6.62;70.21;103310.69;4171981;28;20051;-65
2023/02/14 00:02:24;;;;;;;;;;;;;;;6.63;70.27;103306.19;4173209;28;20015;-65
2023/02/14 00:04:26;;;;;;;;;;;;;;;6.63;69.95;103316.91;4172244;28;20126;-65
2023/02/14 00:06:28;;;;;;;;;;;;;;;6.63;70.21;103308.88;4168588;28;20306;-65
2023/02/14 00:08:30;;;;;;;;;;;;;;;6.62;69.70;103315.22;4172283;28;20677;-65
2023/02/14 00:10:32;;;;;;;;;;;;;;;6.61;69.81;103311.63;4171160;28;20028;-65
2023/02/14 00:12:34;;;;;;;;;;;;;;;6.59;69.38;103310.00;4172753;28;20024;-65
2023/02/14 00:16:57;;;;;;;;;;;;;;;6.52;69.15;103304.13;4171885;28;20024;-66
2023/02/14 00:19:05;;;;;;;;;;;;;;;6.50;69.49;103306.03;4166751;28;20008;-66
2023/02/14 00:21:07;;;;;;;;;;;;;;;6.49;69.76;103309.69;4170830;28;20470;-66
2023/02/14 00:23:09;;;;;;;;;;;;;;;6.51;69.92;103305.06;4172047;28;20075;-66
2023/02/14 00:25:11;;;;;;;;;;;;;;;6.53;70.40;103307.69;4171346;28;20015;-67
2023/02/14 00:27:13;;;;;;;;;;;;;;;6.54;70.16;103306.72;4172454;28;20039;-66
2023/02/14 00:29:16;;;;;;;;;;;;;;;6.53;69.70;103308.53;4171456;28;20028;-66
2023/02/14 00:31:18;;;;;;;;;;;;;;;6.54;70.01;103307.59;4171966;28;20015;-66
2023/02/14 00:33:22;;;;;;;;;;;;;;;6.55;70.50;103306.66;4172026;28;20035;-66
2023/02/14 00:35:24;;;;;;;;;;;;;;;6.56;70.18;103308.34;4166188;28;20442;-66
2023/02/14 00:37:26;;;;;;;;;;;;;;;6.58;70.10;103301.09;4167309;28;20490;-66
2023/02/14 00:39:29;;;;;;;;;;;;;;;6.60;70.41;103303.66;4178240;28;20015;-66
2023/02/14 00:41:31;;;;;;;;;;;;;;;6.57;69.76;103303.88;4171997;28;20019;-66
2023/02/14 00:43:33;;;;;;;;;;;;;;;6.56;69.98;103302.13;4171125;28;20016;-66
2023/02/14 00:45:35;;;;;;;;;;;;;;;6.56;70.24;103297.63;4168049;28;20007;-67
2023/02/14 00:47:37;;;;;;;;;;;;;;;6.54;69.84;103296.00;4171877;28;20023;-67
2023/02/14 00:49:40;;;;;;;;;;;;;;;6.53;69.72;103300.47;4171178;28;20020;-66
2023/02/14 00:51:42;;;;;;;;;;;;;;;6.51;69.06;103298.84;4166949;28;20016;-66
2023/02/14 00:53:44;;;;;;;;;;;;;;;6.49;69.27;103301.63;4154009;28;20024;-66
2023/02/14 00:55:46;;;;;;;;;;;;;;;6.49;69.50;103294.44;4170940;28;20446;-66
2023/02/14 00:57:50;;;;;;;;;;;;;;;6.51;69.47;103298.84;4172394;28;20028;-66
2023/02/14 00:59:52;;;;;;;;;;;;;;;6.51;69.49;103304.22;4170994;28;20028;-66
2023/02/14 01:01:56;;;;;;;;;;;;;;;6.52;69.33;103293.41;4168995;28;20024;-66
2023/02/14 01:03:58;;;;;;;;;;;;;;;6.49;68.66;103297.09;4169832;28;20025;-66
2023/02/14 01:06:02;;;;;;;;;;;;;;;6.48;68.64;103292.69;4164354;28;20019;-66
2023/02/14 01:08:05;;;;;;;;;;;;;;;6.49;69.47;103294.44;4169469;28;20023;-66
2023/02/14 01:10:07;;;;;;;;;;;;;;;6.51;69.18;103290.81;4185846;28;20420;-66
2023/02/14 01:12:09;;;;;;;;;;;;;;;6.49;68.92;103288.19;4169990;28;20027;-66
2023/02/14 01:14:11;;;;;;;;;;;;;;;6.48;69.13;103287.31;4171500;28;20023;-66
2023/02/14 01:16:14;;;;;;;;;;;;;;;6.50;68.84;103289.91;4171053;28;20007;-66
2023/02/14 01:18:16;;;;;;;;;;;;;;;6.52;68.95;103287.13;4171376;28;20021;-66
2023/02/14 01:20:18;;;;;;;;;;;;;;;6.52;69.40;103281.78;4170192;28;20004;-66
2023/02/14 01:22:22;;;;;;;;;;;;;;;6.53;69.61;103288.88;4165616;28;20019;-66
2023/02/14 01:24:25;;;;;;;;;;;;;;;6.55;70.06;103284.28;4167568;28;20027;-66
2023/02/14 01:26:28;;;;;;;;;;;;;;;6.57;69.77;103282.41;4170004;28;20498;-66
2023/02/14 01:28:30;;;;;;;;;;;;;;;6.56;68.99;103288.72;4170278;28;20023;-66
2023/02/14 01:30:32;;;;;;;;;;;;;;;6.55;68.85;103278.91;4170254;28;20016;-66
2023/02/14 01:32:34;;;;;;;;;;;;;;;6.55;68.94;103273.53;4170885;28;20052;-66
2023/02/14 01:34:36;;;;;;;;;;;;;;;6.54;69.06;103275.38;4167432;28;20080;-66
2023/02/14 01:36:38;;;;;;;;;;;;;;;6.53;69.18;103281.69;4170266;28;20032;-66
2023/02/14 01:38:42;;;;;;;;;;;;;;;6.53;69.40;103273.63;4170503;28;20015;-66
2023/02/14 01:40:44;;;;;;;;;;;;;;;6.52;68.73;103268.34;4168639;28;20016;-67
2023/02/14 01:42:47;;;;;;;;;;;;;;;6.47;69.00;103265.91;4172375;28;20023;-67
2023/02/14 01:44:56;;;;;;;;;;;;;;;6.43;68.74;103262.56;4167063;28;20012;-67
2023/02/14 01:46:58;;;;;;;;;;;;;;;6.40;68.76;103265.41;4184337;28;20011;-67
2023/02/14 01:49:01;;;;;;;;;;;;;;;6.40;69.44;103264.56;4185482;28;20055;-67
2023/02/14 01:51:03;;;;;;;;;;;;;;;6.40;69.70;103257.38;4167791;28;20011;-67
2023/02/14 01:53:06;;;;;;;;;;;;;;;6.40;69.93;103257.38;4168622;28;20040;-66
2023/02/14 01:55:14;;;;;;;;;;;;;;;6.44;69.80;103255.34;4169280;28;20013;-66
2023/02/14 01:57:18;;;;;;;;;;;;;;;6.46;69.81;103258.84;4167665;28;20028;-66
2023/02/14 01:59:22;;;;;;;;;;;;;;;6.43;69.29;103251.81;4166337;28;20024;-66
2023/02/14 02:01:23;;;;;;;;;;;;;;;6.41;69.33;103264.47;4168149;28;20020;-66
2023/02/14 02:03:26;;;;;;;;;;;;;;;6.39;69.53;103255.63;4177288;28;19933;-68
2023/02/14 02:05:28;;;;;;;;;;;;;;;6.41;69.98;103255.53;4170700;28;19996;-67
2023/02/14 02:07:30;;;;;;;;;;;;;;;6.42;69.87;103257.28;4168734;28;20040;-67
2023/02/14 02:09:35;;;;;;;;;;;;;;;6.43;69.95;103262.56;4170753;28;20446;-67
2023/02/14 02:11:39;;;;;;;;;;;;;;;6.41;68.96;103256.41;4169620;28;20021;-68
2023/02/14 02:13:41;;;;;;;;;;;;;;;6.39;69.18;103260.13;4168397;28;20363;-67
2023/02/14 02:15:46;;;;;;;;;;;;;;;6.36;69.38;103274.59;4169987;28;20020;-67
2023/02/14 02:17:49;;;;;;;;;;;;;;;6.36;69.78;103265.69;4148556;28;19997;-68
2023/02/14 02:20:01;;;;;;;;;;;;;;;6.35;69.73;103264.81;4168310;28;20011;-67
2023/02/14 02:22:12;;;;;;;;;;;;;;;6.35;69.42;103262.13;4171245;28;19959;-67
2023/02/14 02:24:15;;;;;;;;;;;;;;;6.37;69.44;103264.75;4170470;28;20031;-67
2023/02/14 02:26:38;;;;;;;;;;;;;;;6.38;69.74;103258.38;4169878;28;20655;-67
2023/02/14 02:28:53;;;;;;;;;;;;;;;6.40;69.76;103261.88;4182684;28;20543;-67
2023/02/14 02:31:07;;;;;;;;;;;;;;;6.39;69.78;103263.69;4177381;28;20576;-67
2023/02/14 02:33:27;;;;;;;;;;;;;;;6.40;70.29;103265.41;4164639;28;20023;-68
2023/02/14 02:35:34;;;;;;;;;;;;;;;6.41;70.14;103263.59;4165600;28;20470;-67
2023/02/14 02:37:40;;;;;;;;;;;;;;;6.43;69.78;103261.69;4169902;28;20020;-67
2023/02/14 02:39:47;;;;;;;;;;;;;;;6.40;69.90;103260.03;4165320;28;19960;-67
2023/02/14 02:41:52;;;;;;;;;;;;;;;6.39;69.34;103262.81;4169734;28;20020;-67
2023/02/14 02:43:55;;;;;;;;;;;;;;;6.37;69.38;103260.22;4170519;28;20036;-67
2023/02/14 02:48:20;;;;;;;;;;;;;;;6.36;69.98;103257.63;4170708;28;20024;-67
2023/02/14 02:53:01;;;;;;;;;;;;;;;6.34;70.33;103263.09;4171048;28;20012;-67
2023/02/14 02:55:04;;;;;;;;;;;;;;;6.34;70.79;103255.03;4171415;28;20020;-67
2023/02/14 02:57:07;;;;;;;;;;;;;;;6.36;70.34;103265.69;4170356;28;20020;-67
2023/02/14 02:59:17;;;;;;;;;;;;;;;6.35;70.23;103256.78;4169421;28;20012;-67
2023/02/14 03:01:21;;;;;;;;;;;;;;;6.35;69.69;103258.56;4170711;28;20637;-67
2023/02/14 03:05:44;;;;;;;;;;;;;;;6.36;69.72;103260.31;4170419;28;19995;-68
2023/02/14 03:07:48;;;;;;;;;;;;;;;6.37;69.94;103264.75;4167273;28;20019;-68
2023/02/14 03:09:51;;;;;;;;;;;;;;;6.37;69.95;103262.91;4168901;28;20025;-67
2023/02/14 03:11:55;;;;;;;;;;;;;;;6.39;70.06;103260.13;4177469;28;20067;-67
2023/02/14 03:14:07;;;;;;;;;;;;;;;6.39;70.13;103257.44;4176931;28;20592;-67
2023/02/14 03:16:23;;;;;;;;;;;;;;;6.40;69.72;103269.94;4176871;28;20019;-67
2023/02/14 03:18:32;;;;;;;;;;;;;;;6.38;70.03;103261.97;4170599;28;19996;-67
2023/02/14 03:20:36;;;;;;;;;;;;;;;6.36;70.40;103268.38;4165704;28;20016;-67
2023/02/14 03:22:42;;;;;;;;;;;;;;;6.37;70.75;103265.59;4171196;28;19932;-67
2023/02/14 03:24:46;;;;;;;;;;;;;;;6.38;70.74;103261.06;4170739;28;20471;-67
2023/02/14 03:26:49;;;;;;;;;;;;;;;6.37;70.59;103254.00;4164927;28;20015;-68
2023/02/14 03:28:53;;;;;;;;;;;;;;;6.36;70.53;103254.94;4170282;28;20027;-67
2023/02/14 03:30:57;;;;;;;;;;;;;;;6.36;70.72;103250.44;4169010;28;20351;-67
2023/02/14 03:33:01;;;;;;;;;;;;;;;6.37;70.96;103254.00;4173209;28;20027;-67
2023/02/14 03:35:06;;;;;;;;;;;;;;;6.35;70.11;103256.78;4172042;28;20027;-67
2023/02/14 03:37:09;;;;;;;;;;;;;;;6.32;70.62;103260.47;4172143;28;20019;-68
2023/02/14 03:39:15;;;;;;;;;;;;;;;6.33;70.92;103253.28;4172642;28;20020;-67
2023/02/14 03:41:20;;;;;;;;;;;;;;;6.34;71.01;103248.81;4170901;28;20028;-67
2023/02/14 03:43:22;;;;;;;;;;;;;;;6.35;70.63;103258.56;4171687;28;20300;-68
2023/02/14 03:45:26;;;;;;;;;;;;;;;6.34;70.71;103257.72;4172004;28;20008;-68
2023/02/14 03:47:29;;;;;;;;;;;;;;;6.36;70.86;103253.09;4172875;28;20459;-67
2023/02/14 03:49:32;;;;;;;;;;;;;;;6.33;70.10;103258.66;4168006;28;20024;-67
2023/02/14 03:51:34;;;;;;;;;;;;;;;6.31;70.43;103260.56;4173102;28;20016;-67
2023/02/14 03:53:36;;;;;;;;;;;;;;;6.28;70.21;103258.06;4172670;28;20023;-67
2023/02/14 03:55:40;;;;;;;;;;;;;;;6.27;70.66;103259.00;4173051;28;20020;-67
2023/02/14 03:57:46;;;;;;;;;;;;;;;6.25;70.32;103255.56;4173535;28;20364;-67
2023/02/14 03:59:48;;;;;;;;;;;;;;;6.19;70.45;103253.22;4172721;28;19973;-67
2023/02/14 04:01:50;;;;;;;;;;;;;;;6.18;71.09;103262.22;4173421;28;20589;-67
2023/02/14 04:03:52;;;;;;;;;;;;;;;6.18;71.35;103255.03;4173466;28;20431;-67
2023/02/14 04:05:54;;;;;;;;;;;;;;;6.20;71.27;103253.13;4172812;28;20023;-67
2023/02/14 04:07:57;;;;;;;;;;;;;;;6.21;71.14;103249.50;4173545;28;20027;-67
2023/02/14 04:09:59;;;;;;;;;;;;;;;6.23;71.22;103249.41;4172979;28;20008;-67
2023/02/14 04:12:01;;;;;;;;;;;;;;;6.26;71.72;103249.25;4173542;28;20024;-67
2023/02/14 04:14:04;;;;;;;;;;;;;;;6.27;71.31;103253.63;4173352;28;20019;-67
2023/02/14 04:16:07;;;;;;;;;;;;;;;6.31;71.74;103252.53;4169490;28;20021;-67
2023/02/14 04:20:29;;;;;;;;;;;;;;;6.31;70.74;103248.00;4172224;28;20020;-67
2023/02/14 04:22:31;;;;;;;;;;;;;;;6.31;70.85;103249.84;4172884;28;20104;-67
2023/02/14 04:24:33;;;;;;;;;;;;;;;6.30;70.37;103245.41;4172545;28;20373;-68
2023/02/14 04:26:35;;;;;;;;;;;;;;;6.30;70.86;103245.41;4172868;28;20021;-67
2023/02/14 04:28:38;;;;;;;;;;;;;;;6.26;70.58;103250.09;4171150;28;19991;-67
2023/02/14 04:30:42;;;;;;;;;;;;;;;6.25;70.53;103258.22;4171540;28;20036;-68
2023/02/14 04:32:44;;;;;;;;;;;;;;;6.20;70.77;103245.06;4172911;28;20511;-67
2023/02/14 04:34:46;;;;;;;;;;;;;;;6.21;71.10;103254.00;4171802;28;20039;-67
2023/02/14 04:36:48;;;;;;;;;;;;;;;6.21;70.80;103241.44;4171398;28;20043;-68
2023/02/14 04:38:50;;;;;;;;;;;;;;;6.21;70.74;103238.75;4171476;28;20198;-67
2023/02/14 04:40:53;;;;;;;;;;;;;;;6.22;70.90;103245.88;4171924;28;20007;-68
2023/02/14 04:42:55;;;;;;;;;;;;;;;6.22;70.86;103240.50;4171591;28;20092;-67
2023/02/14 04:44:57;;;;;;;;;;;;;;;6.25;71.34;103239.44;4171773;28;20827;-67
2023/02/14 04:47:01;;;;;;;;;;;;;;;6.26;71.65;103242.03;4172277;28;20475;-67
2023/02/14 04:49:03;;;;;;;;;;;;;;;6.27;71.45;103246.47;4172408;28;20612;-68
2023/02/14 04:51:05;;;;;;;;;;;;;;;6.27;70.98;103245.56;4171206;28;20011;-68
2023/02/14 04:53:08;;;;;;;;;;;;;;;6.25;70.95;103239.44;4171932;28;20016;-67
2023/02/14 04:55:10;;;;;;;;;;;;;;;6.24;71.08;103232.38;4171733;28;20027;-67
2023/02/14 04:57:12;;;;;;;;;;;;;;;6.25;71.05;103232.28;4172557;28;20032;-67
2023/02/14 04:59:14;;;;;;;;;;;;;;;6.22;71.00;103231.56;4169673;28;20028;-67
2023/02/14 05:01:16;;;;;;;;;;;;;;;6.20;71.06;103228.97;4172129;28;20368;-67
2023/02/14 05:03:19;;;;;;;;;;;;;;;6.13;70.83;103236.50;4172415;28;20024;-67
2023/02/14 05:05:21;;;;;;;;;;;;;;;6.06;71.19;103226.22;4170741;28;20015;-67
2023/02/14 05:07:23;;;;;;;;;;;;;;;6.03;71.33;103227.25;4166775;28;20028;-67
2023/02/14 05:09:25;;;;;;;;;;;;;;;6.02;71.32;103222.84;4169752;28;20015;-68
2023/02/14 05:11:28;;;;;;;;;;;;;;;6.00;71.58;103227.41;4170544;28;20365;-68
2023/02/14 05:13:30;;;;;;;;;;;;;;;6.02;72.41;103225.53;4170102;28;20028;-67
2023/02/14 05:15:32;;;;;;;;;;;;;;;6.08;72.49;103232.34;4177471;28;20000;-68
2023/02/14 05:17:34;;;;;;;;;;;;;;;6.11;72.36;103222.31;4172643;28;20012;-67
2023/02/14 05:19:39;;;;;;;;;;;;;;;6.14;72.38;103229.31;4170676;28;20455;-67
2023/02/14 05:21:40;;;;;;;;;;;;;;;6.16;72.34;103224.75;4171564;28;20019;-67
2023/02/14 05:23:42;;;;;;;;;;;;;;;6.18;72.07;103224.66;4170628;28;20023;-67
2023/02/14 05:25:45;;;;;;;;;;;;;;;6.16;71.98;103208.66;4171140;28;20036;-68
2023/02/14 05:27:47;;;;;;;;;;;;;;;6.12;71.63;103223.19;4170974;28;20032;-68
2023/02/14 05:29:49;;;;;;;;;;;;;;;6.08;71.85;103217.13;4170905;28;20417;-68
2023/02/14 05:31:50;;;;;;;;;;;;;;;6.05;71.69;103214.63;4166018;28;20023;-67
2023/02/14 05:33:52;;;;;;;;;;;;;;;6.04;72.04;103212.03;4171582;28;20024;-67
2023/02/14 05:35:56;;;;;;;;;;;;;;;6.04;72.61;103217.38;4160695;28;20041;-67
2023/02/14 05:37:58;;;;;;;;;;;;;;;6.06;72.42;103216.34;4170147;28;20020;-68
2023/02/14 05:40:00;;;;;;;;;;;;;;;6.07;72.09;103209.16;4167650;28;20028;-67
2023/02/14 05:42:02;;;;;;;;;;;;;;;6.09;72.40;103209.94;4169680;28;20027;-66
2023/02/14 05:44:04;;;;;;;;;;;;;;;6.11;72.22;103213.38;4169175;28;20027;-67
2023/02/14 05:46:06;;;;;;;;;;;;;;;6.11;71.96;103216.06;4169087;28;20016;-66
2023/02/14 05:48:08;;;;;;;;;;;;;;;6.09;72.28;103213.47;4170491;28;20036;-67
2023/02/14 05:50:11;;;;;;;;;;;;;;;6.11;72.00;103218.75;4168394;28;20447;-67
2023/02/14 05:52:14;;;;;;;;;;;;;;;6.09;71.94;103216.16;4169053;28;20024;-67
2023/02/14 05:54:17;;;;;;;;;;;;;;;6.09;71.86;103218.00;4168123;28;20016;-67
2023/02/14 05:56:19;;;;;;;;;;;;;;;6.10;72.15;103219.72;4166594;28;20047;-65
2023/02/14 05:58:21;;;;;;;;;;;;;;;6.10;72.19;103215.22;4166220;28;20024;-67
2023/02/14 06:00:23;;;;;;;;;;;;;;;6.11;72.11;103216.97;4168047;28;20019;-66
2023/02/14 06:02:25;;;;;;;;;;;;;;;6.11;71.86;103210.72;4167947;28;20441;-66
2023/02/14 06:04:27;;;;;;;;;;;;;;;6.12;71.78;103212.44;4168934;28;20052;-67
2023/02/14 06:06:29;;;;;;;;;;;;;;;6.13;72.22;103214.19;4167289;28;19993;-67
2023/02/14 06:08:33;;;;;;;;;;;;;;;6.12;72.05;103218.66;4168172;28;20015;-66
2023/02/14 06:10:35;;;;;;;;;;;;;;;6.10;71.83;103215.22;4167896;28;20024;-67
2023/02/14 06:12:37;;;;;;;;;;;;;;;6.07;72.12;103214.53;4169184;28;20498;-67
2023/02/14 06:14:40;;;;;;;;;;;;;;;6.07;72.34;103214.53;4168922;28;20041;-67
2023/02/14 06:16:42;;;;;;;;;;;;;;;6.07;72.22;103219.91;4170681;28;20434;-67
2023/02/14 06:18:44;;;;;;;;;;;;;;;6.08;72.10;103219.81;4169963;28;20019;-67
2023/02/14 06:20:46;;;;;;;;;;;;;;;6.09;71.82;103221.53;4168147;28;20144;-67
2023/02/14 06:22:48;;;;;;;;;;;;;;;6.09;71.64;103218.84;4169503;28;20015;-67
2023/02/14 06:24:51;;;;;;;;;;;;;;;6.08;71.63;103224.28;4169387;28;20020;-67
2023/02/14 06:26:53;;;;;;;;;;;;;;;6.06;71.65;103224.38;4165570;28;20008;-67
2023/02/14 06:28:55;;;;;;;;;;;;;;;6.05;71.49;103224.47;4170553;28;20449;-67
2023/02/14 06:30:57;;;;;;;;;;;;;;;6.06;72.01;103224.38;4169148;28;20011;-66
2023/02/14 06:32:59;;;;;;;;;;;;;;;6.06;71.51;103227.06;4170591;28;20024;-68
2023/02/14 06:35:02;;;;;;;;;;;;;;;6.05;71.53;103220.00;4170408;28;20016;-67
2023/02/14 06:37:05;;;;;;;;;;;;;;;6.06;71.45;103231.56;4167655;28;20919;-67
2023/02/14 06:39:07;;;;;;;;;;;;;;;6.05;71.52;103235.19;4170813;28;20019;-67
2023/02/14 06:41:11;;;;;;;;;;;;;;;6.01;72.05;103234.50;4169779;28;20003;-66
2023/02/14 06:43:13;;;;;;;;;;;;;;;5.98;72.30;103223.94;4170777;28;20044;-66
2023/02/14 06:45:15;;;;;;;;;;;;;;;5.94;72.12;103230.41;4168257;28;20012;-67
2023/02/14 06:47:17;;;;;;;;;;;;;;;5.92;72.96;103221.59;4169907;28;20023;-66
2023/02/14 06:49:19;;;;;;;;;;;;;;;5.94;73.02;103228.59;4170285;28;20012;-66
2023/02/14 06:51:21;;;;;;;;;;;;;;;5.97;72.96;103227.56;4170364;28;20397;-67
2023/02/14 06:53:23;;;;;;;;;;;;;;;6.00;73.11;103223.88;4170833;28;20035;-66
2023/02/14 06:55:25;;;;;;;;;;;;;;;6.03;73.20;103223.69;4169718;28;20008;-67
2023/02/14 06:57:28;;;;;;;;;;;;;;;6.06;72.67;103224.38;4170831;28;20024;-67
2023/02/14 06:59:30;;;;;;;;;;;;;;;6.07;72.21;103225.28;4165856;28;20415;-67
2023/02/14 07:01:32;;;;;;;;;;;;;;;6.05;72.24;103230.72;4170599;28;20024;-67
2023/02/14 07:03:34;;;;;;;;;;;;;;;6.00;72.10;103223.88;4170019;28;20032;-67
2023/02/14 07:05:36;;;;;;;;;;;;;;;5.94;71.94;103225.91;4170975;28;20028;-67
2023/02/14 07:07:38;;;;;;;;;;;;;;;5.92;72.43;103221.59;4173838;28;20012;-67
2023/02/14 07:09:40;;;;;;;;;;;;;;;5.92;72.58;103227.84;4170776;28;20016;-67
2023/02/14 07:11:42;;;;;;;;;;;;;;;5.96;72.76;103220.47;4173305;28;20016;-67
2023/02/14 07:13:46;;;;;;;;;;;;;;;5.97;72.71;103218.69;4173836;28;20036;-67
2023/02/14 07:15:48;;;;;;;;;;;;;;;5.96;72.47;103220.47;4169296;28;20028;-67
2023/02/14 07:17:51;;;;;;;;;;;;;;;5.94;72.28;103212.50;4173688;28;20029;-67
2023/02/14 07:19:53;;;;;;;;;;;;;;;5.97;72.47;103214.16;4172997;28;20024;-66
2023/02/14 07:21:55;;;;;;;;;;;;;;;5.99;72.12;103217.66;4167828;28;20019;-66
2023/02/14 07:23:57;;;;;;;;;;;;;;;5.99;72.25;103219.44;4173901;28;20395;-67
2023/02/14 07:25:59;;;;;;;;;;;;;;;5.96;72.18;103220.47;4173679;28;20541;-67
2023/02/14 07:28:01;;;;;;;;;;;;;;;5.97;72.56;103216.00;4172230;28;20015;-67
2023/02/14 07:30:05;;;;;;;;;;;;;;;5.96;72.43;103220.47;4173270;28;20027;-67
2023/02/14 07:32:07;;;;;;;;;;;;;;;5.97;72.47;103216.84;4173848;28;20491;-66
2023/02/14 07:34:10;;;;;;;;;;;;;;;5.94;72.44;103217.88;4174478;28;20382;-66
2023/02/14 07:36:12;;;;;;;;;;;;;;;5.95;72.71;103227.63;4172867;28;20008;-66
2023/02/14 07:38:14;;;;;;;;;;;;;;;5.97;72.73;103227.56;4174171;28;19975;-66
2023/02/14 07:40:16;;;;;;;;;;;;;;;5.99;72.43;103223.00;4172858;28;19999;-67
2023/02/14 07:42:18;;;;;;;;;;;;;;;6.01;72.58;103229.16;4173830;28;20040;-67
2023/02/14 07:44:20;;;;;;;;;;;;;;;6.00;72.01;103232.78;4172574;28;20509;-67
2023/02/14 07:46:23;;;;;;;;;;;;;;;5.98;72.32;103223.94;4169108;28;20011;-67
2023/02/14 07:48:25;;;;;;;;;;;;;;;5.95;72.41;103221.41;4170530;28;20015;-67
2023/02/14 07:50:27;;;;;;;;;;;;;;;5.95;72.82;103216.91;4172660;28;20450;-68
2023/02/14 07:52:29;;;;;;;;;;;;;;;5.98;73.37;103218.59;4172478;28;20035;-67
2023/02/14 07:54:31;;;;;;;;;;;;;;;6.01;73.20;103218.41;4168303;28;20078;-67
2023/02/14 07:56:33;;;;;;;;;;;;;;;6.00;72.30;103216.69;4172350;28;20011;-66
2023/02/14 07:58:35;;;;;;;;;;;;;;;6.01;72.12;103218.41;4172683;28;20031;-67
2023/02/14 08:00:37;;;;;;;;;;;;;;;6.02;72.53;103221.97;4171360;28;20016;-67
2023/02/14 08:02:41;;;;;;;;;;;;;;;6.02;72.31;103214.78;4172427;28;20020;-67
2023/02/14 08:04:43;;;;;;;;;;;;;;;6.05;72.23;103211.94;4172096;28;20027;-67
2023/02/14 08:06:44;;;;;;;;;;;;;;;6.07;72.22;103220.75;4172113;28;20027;-66
2023/02/14 08:08:47;;;;;;;;;;;;;;;6.10;72.24;103219.72;4172477;28;20015;-67
2023/02/14 08:10:49;;;;;;;;;;;;;;;6.11;72.26;103221.44;4171896;28;20003;-67
2023/02/14 08:12:58;;;;;;;;;;;;;;;6.11;72.00;103218.75;4172635;28;20035;-67
2023/02/14 08:16:03;;;;;;;;;;;;;;;6.14;72.03;103229.31;4171737;28;20020;-67
2023/02/14 08:17:22;;;;;;;;;;;;;;;6.15;71.70;103231.06;4172375;28;20015;-67
2023/02/14 08:19:25;;;;;;;;;;;;;;;6.17;71.92;103228.28;4172153;28;20466;-67
2023/02/14 08:21:27;;;;;;;;;;;;;;;6.18;71.61;103240.75;4170959;28;20020;-67
2023/02/14 08:23:29;;;;;;;;;;;;;;;6.20;71.91;103236.16;4172933;28;20047;-65
2023/02/14 08:25:31;;;;;;;;;;;;;;;6.21;71.73;103233.41;4169730;28;19985;-66
2023/02/14 08:27:33;;;;;;;;;;;;;;;6.21;71.33;103237.91;4172971;28;20024;-67
2023/02/14 08:29:35;;;;;;;;;;;;;;;6.19;71.28;103246.03;4172305;28;20348;-67
2023/02/14 08:31:38;;;;;;;;;;;;;;;6.18;71.09;103247.00;4172919;28;20020;-67
2023/02/14 08:33:39;;;;;;;;;;;;;;;6.18;70.96;103241.63;4172755;28;20028;-67
2023/02/14 08:35:43;;;;;;;;;;;;;;;6.17;71.44;103249.75;4172409;28;20031;-67
2023/02/14 08:37:45;;;;;;;;;;;;;;;6.17;71.49;103245.25;4171576;28;20023;-67
2023/02/14 08:39:47;;;;;;;;;;;;;;;6.18;71.50;103243.44;4167193;28;20478;-67
2023/02/14 08:41:49;;;;;;;;;;;;;;;6.19;71.59;103248.72;4172791;28;20451;-67
2023/02/14 08:43:51;;;;;;;;;;;;;;;6.20;71.25;103250.44;4172959;28;20059;-67
2023/02/14 08:45:53;;;;;;;;;;;;;;;6.21;71.26;103245.97;4171568;28;20012;-66
2023/02/14 08:47:55;;;;;;;;;;;;;;;6.23;71.34;103246.72;4172575;28;20003;-67
2023/02/14 08:49:57;;;;;;;;;;;;;;;6.25;71.22;103255.56;4168426;28;20060;-67
2023/02/14 08:52:00;;;;;;;;;;;;;;;6.25;71.35;103259.13;4170391;28;19959;-67
2023/02/14 08:54:02;;;;;;;;;;;;;;;6.24;71.06;103257.38;4172131;28;20015;-67
2023/02/14 08:56:04;;;;;;;;;;;;;;;6.25;71.17;103259.13;4172241;28;20028;-67
2023/02/14 08:58:07;;;;;;;;;;;;;;;6.26;71.08;103255.47;4173749;28;20023;-66
2023/02/14 09:00:09;;;;;;;;;;;;;;;6.28;70.92;103250.00;4170207;28;20023;-67
2023/02/14 09:02:12;;;;;;;;;;;;;;;6.30;70.98;103250.78;4172458;28;20011;-67
2023/02/14 09:04:14;;;;;;;;;;;;;;;6.29;71.09;103255.28;4172551;28;20013;-67
2023/02/14 09:06:16;;;;;;;;;;;;;;;6.29;70.89;103249.91;4171431;28;20531;-67
2023/02/14 09:08:20;;;;;;;;;;;;;;;6.29;70.87;103251.75;4172627;28;20443;-68
2023/02/14 09:10:22;;;;;;;;;;;;;;;6.29;70.95;103262.50;4172177;28;20020;-67
2023/02/14 09:12:25;;;;;;;;;;;;;;;6.31;71.08;103258.75;4171447;28;20446;-66
2023/02/14 09:14:26;;;;;;;;;;;;;;;6.32;71.42;103254.25;4167647;28;20028;-66
2023/02/14 09:16:28;;;;;;;;;;;;;;;6.34;71.37;103249.66;4170844;28;20023;-65
2023/02/14 09:18:30;;;;;;;;;;;;;;;6.35;70.77;103255.88;4170781;28;20027;-66
2023/02/14 09:20:33;;;;;;;;;;;;;;;6.34;70.66;103255.03;4166077;28;20019;-66
2023/02/14 09:22:35;;;;;;;;;;;;;;;6.33;70.81;103264.03;4170980;28;20012;-66
2023/02/14 09:24:38;;;;;;;;;;;;;;;6.34;71.21;103264.91;4170624;28;20036;-67
2023/02/14 09:26:41;;;;;;;;;;;;;;;6.34;71.21;103260.41;4165275;28;20024;-66
2023/02/14 09:28:43;;;;;;;;;;;;;;;6.34;70.83;103254.19;4170612;28;20024;-66
2023/02/14 09:30:45;;;;;;;;;;;;;;;6.35;71.22;103254.09;4167943;28;20012;-66
2023/02/14 09:32:47;;;;;;;;;;;;;;;6.36;71.29;103250.44;4169135;28;20020;-65
2023/02/14 09:34:49;;;;;;;;;;;;;;;6.37;71.14;103252.16;4170784;28;20458;-66
2023/02/14 09:39:10;;;;;;;;;;;;;;;6.41;71.02;103259.09;4170158;28;20458;-65
2023/02/14 09:41:18;;;;;;;;;;;;;;;6.42;71.30;103251.91;4169924;28;20370;-65
2023/02/14 09:43:22;;;;;;;;;;;;;;;6.43;70.87;103246.44;4170575;28;20031;-66
2023/02/14 09:45:24;;;;;;;;;;;;;;;6.44;70.92;103256.25;4170499;28;20025;-66
2023/02/14 09:47:30;;;;;;;;;;;;;;;6.44;70.55;103255.34;4169890;28;20007;-66
2023/02/14 09:49:33;;;;;;;;;;;;;;;6.44;70.80;103258.94;4170379;28;20533;-66
2023/02/14 09:51:45;;;;;;;;;;;;;;;6.47;71.31;103260.56;4170728;28;20023;-65
2023/02/14 09:53:48;;;;;;;;;;;;;;;6.47;71.26;103257.88;4170282;28;20582;-65
2023/02/14 09:55:52;;;;;;;;;;;;;;;6.48;71.26;103259.59;4169010;28;20024;-66
2023/02/14 09:58:01;;;;;;;;;;;;;;;6.46;70.57;103267.75;4166309;28;20377;-66
2023/02/14 10:00:06;;;;;;;;;;;;;;;6.47;70.06;103269.50;4169812;28;20004;-66
2023/02/14 10:02:14;;;;;;;;;;;;;;;6.46;71.08;103259.69;4166891;28;20032;-66
2023/02/14 10:04:19;;;;;;;;;;;;;;;6.47;71.11;103269.50;4166894;28;20021;-66
2023/02/14 10:06:24;;;;;;;;;;;;;;;6.48;71.14;103260.47;4164714;28;20011;-66
2023/02/14 10:08:30;;;;;;;;;;;;;;;6.49;70.46;103261.34;4164488;28;20367;-65
2023/02/14 10:10:33;;;;;;;;;;;;;;;6.49;70.63;103259.53;4164279;28;20019;-65
2023/02/14 10:12:36;;;;;;;;;;;;;;;6.48;69.94;103257.78;4166075;28;20454;-66
2023/02/14 10:14:40;;;;;;;;;;;;;;;6.48;70.18;103251.56;4169049;28;20023;-66
2023/02/14 10:16:43;;;;;;;;;;;;;;;6.47;70.18;103258.75;4169117;28;20039;-65
2023/02/14 10:18:46;;;;;;;;;;;;;;;6.47;70.31;103252.50;4169940;28;20426;-65
2023/02/14 10:20:49;;;;;;;;;;;;;;;6.47;70.44;103256.06;4166316;28;20016;-65
2023/02/14 10:22:54;;;;;;;;;;;;;;;6.47;70.51;103253.38;4169006;28;20011;-66
2023/02/14 10:24:57;;;;;;;;;;;;;;;6.48;70.91;103259.59;4168587;28;20024;-66
2023/02/14 10:27:02;;;;;;;;;;;;;;;6.49;70.92;103251.47;4169393;28;20016;-66
2023/02/14 10:29:05;;;;;;;;;;;;;;;6.49;70.21;103259.53;4169755;28;20015;-66
2023/02/14 10:31:15;;;;;;;;;;;;;;;6.49;70.24;103251.47;4168837;28;20023;-66
2023/02/14 10:33:17;;;;;;;;;;;;;;;6.51;70.37;103255.91;4170157;28;20016;-66
2023/02/14 10:35:23;;;;;;;;;;;;;;;6.51;70.97;103254.06;4169598;28;20023;-66
2023/02/14 10:37:31;;;;;;;;;;;;;;;6.53;71.06;103245.91;4169612;28;20024;-66
2023/02/14 10:39:37;;;;;;;;;;;;;;;6.53;70.93;103236.03;4170155;28;20029;-66
2023/02/14 10:41:41;;;;;;;;;;;;;;;6.52;70.22;103239.69;4172435;28;20020;-65
2023/02/14 10:43:45;;;;;;;;;;;;;;;6.53;70.36;103243.25;4173420;28;20023;-66
2023/02/14 10:45:47;;;;;;;;;;;;;;;6.50;69.66;103241.59;4171631;28;20011;-66
2023/02/14 10:47:52;;;;;;;;;;;;;;;6.52;70.83;103236.13;4171810;28;20024;-65
2023/02/14 10:49:55;;;;;;;;;;;;;;;6.52;70.13;103236.13;4171190;28;20028;-66
2023/02/14 10:51:57;;;;;;;;;;;;;;;6.53;69.97;103235.19;4170539;28;20011;-65
2023/02/14 10:54:02;;;;;;;;;;;;;;;6.52;70.56;103245.06;4171107;28;20326;-65
2023/02/14 10:56:05;;;;;;;;;;;;;;;6.54;70.70;103248.53;4171714;28;20056;-65